createdAt,value
2019-05-10T00:00:20.819Z,77.32
2019-05-10T00:03:08.849Z,77.30
2019-05-10T00:05:56.996Z,77.08
2019-05-10T00:08:44.949Z,77.12
2019-05-10T00:11:35.727Z,77.11
2019-05-10T00:14:36.045Z,76.73
2019-05-10T00:17:20.772Z,76.53
2019-05-10T00:19:51.622Z,76.45
2019-05-10T00:22:22.657Z,76.15
2019-05-10T00:25:02.958Z,75.92
2019-05-10T00:27:25.550Z,75.80
2019-05-10T00:29:56.079Z,75.78
2019-05-10T00:32:28.090Z,75.67
2019-05-10T00:34:59.285Z,75.89
2019-05-10T00:37:29.937Z,76.00
2019-05-10T00:40:00.491Z,75.64
2019-05-10T00:42:31.295Z,76.01
2019-05-10T00:45:02.002Z,76.26
2019-05-10T00:47:33.739Z,76.94
2019-05-10T00:50:04.413Z,77.46
2019-05-10T00:52:34.937Z,78.01
2019-05-10T00:55:17.856Z,78.46
2019-05-10T00:57:38.296Z,79.37
2019-05-10T01:00:09.818Z,79.36
2019-05-10T01:02:40.519Z,79.83
2019-05-10T01:05:11.297Z,80.30
2019-05-10T01:07:41.812Z,80.33
2019-05-10T01:10:12.475Z,80.04
2019-05-10T01:12:43.413Z,79.93
2019-05-10T01:15:14.245Z,79.86
2019-05-10T01:17:45.278Z,79.54
2019-05-10T01:20:16.082Z,79.47
2019-05-10T01:22:46.625Z,79.86
2019-05-10T01:25:17.349Z,79.88
2019-05-10T01:27:48.050Z,80.27
2019-05-10T01:30:18.731Z,80.39
2019-05-10T01:32:49.530Z,80.49
2019-05-10T01:35:20.305Z,80.12
2019-05-10T01:37:51.013Z,79.94
2019-05-10T01:40:21.667Z,79.81
2019-05-10T01:42:52.730Z,79.96
2019-05-10T01:45:23.502Z,80.18
2019-05-10T01:47:55.612Z,80.60
2019-05-10T01:50:26.231Z,80.82
2019-05-10T01:52:56.903Z,80.69
2019-05-10T01:55:27.632Z,80.94
2019-05-10T01:57:58.338Z,80.97
2019-05-10T02:00:29.015Z,80.34
2019-05-10T02:03:00.103Z,80.59
2019-05-10T02:05:30.724Z,80.35
2019-05-10T02:08:01.383Z,78.83
2019-05-10T02:10:31.939Z,79.06
2019-05-10T02:13:02.835Z,79.14
2019-05-10T02:15:33.462Z,79.16
2019-05-10T02:18:04.094Z,78.93
2019-05-10T02:20:35.701Z,78.36
2019-05-10T02:23:06.651Z,78.11
2019-05-10T02:25:37.380Z,78.13
2019-05-10T02:28:08.267Z,77.75
2019-05-10T02:30:39.378Z,78.08
2019-05-10T02:33:09.906Z,77.75
2019-05-10T02:35:40.849Z,78.06
2019-05-10T02:38:11.513Z,77.91
2019-05-10T02:40:42.295Z,78.00
2019-05-10T02:43:12.925Z,78.08
2019-05-10T02:45:43.785Z,77.87
2019-05-10T02:48:14.524Z,77.46
2019-05-10T02:50:45.441Z,77.49
2019-05-10T02:53:16.009Z,77.43
2019-05-10T02:55:47.579Z,77.00
2019-05-10T02:58:18.353Z,76.80
2019-05-10T03:00:50.768Z,76.72
2019-05-10T03:03:25.582Z,76.21
2019-05-10T03:05:57.439Z,76.67
2019-05-10T03:08:30.990Z,76.49
2019-05-10T03:11:01.682Z,76.49
2019-05-10T03:13:34.032Z,76.33
2019-05-10T03:16:05.146Z,75.83
2019-05-10T03:18:35.508Z,76.07
2019-05-10T03:21:08.120Z,75.88
2019-05-10T03:23:38.468Z,75.67
2019-05-10T03:26:09.084Z,75.64
2019-05-10T03:28:39.666Z,75.62
2019-05-10T03:31:10.567Z,75.58
2019-05-10T03:33:41.389Z,75.70
2019-05-10T03:36:12.298Z,75.94
2019-05-10T03:38:43.102Z,75.52
2019-05-10T03:41:14.319Z,75.60
2019-05-10T03:43:44.942Z,76.09
2019-05-10T03:46:15.441Z,76.17
2019-05-10T03:48:46.050Z,76.55
2019-05-10T03:51:16.841Z,76.45
2019-05-10T03:53:47.526Z,76.05
2019-05-10T03:56:19.291Z,75.87
2019-05-10T03:58:49.843Z,75.71
2019-05-10T04:01:20.968Z,75.32
2019-05-10T04:03:51.757Z,75.39
2019-05-10T04:06:22.327Z,75.54
2019-05-10T04:08:53.928Z,75.33
2019-05-10T04:11:24.591Z,75.19
2019-05-10T04:13:56.547Z,74.94
2019-05-10T04:16:28.216Z,74.82
2019-05-10T04:18:58.955Z,74.89
2019-05-10T04:21:29.864Z,75.21
2019-05-10T04:24:00.701Z,75.29
2019-05-10T04:26:31.374Z,75.17
2019-05-10T04:29:01.862Z,75.83
2019-05-10T04:31:32.823Z,75.41
2019-05-10T04:34:04.694Z,75.67
2019-05-10T04:36:35.316Z,75.46
2019-05-10T04:39:07.015Z,75.05
2019-05-10T04:41:37.534Z,74.66
2019-05-10T04:44:08.147Z,74.04
2019-05-10T04:46:38.737Z,74.07
2019-05-10T04:49:09.286Z,74.07
2019-05-10T04:51:39.975Z,74.01
2019-05-10T04:54:11.373Z,74.13
2019-05-10T04:56:42.207Z,73.68
2019-05-10T04:59:12.959Z,73.33
2019-05-10T05:01:43.760Z,72.92
2019-05-10T05:04:14.413Z,72.21
2019-05-10T05:06:45.957Z,71.54
2019-05-10T05:09:16.802Z,71.21
2019-05-10T05:11:47.645Z,70.50
2019-05-10T05:14:18.444Z,69.96
2019-05-10T05:16:49.166Z,69.24
2019-05-10T05:19:19.631Z,69.00
2019-05-10T05:21:50.315Z,68.09
2019-05-10T05:24:22.914Z,67.95
2019-05-10T05:26:53.379Z,66.86
2019-05-10T05:29:26.319Z,66.43
2019-05-10T05:32:01.148Z,66.84
2019-05-10T05:34:31.069Z,66.74
2019-05-10T05:37:01.658Z,66.89
2019-05-10T05:39:32.160Z,67.35
2019-05-10T05:42:02.893Z,67.46
2019-05-10T05:44:33.947Z,67.15
2019-05-10T05:47:04.980Z,67.88
2019-05-10T05:49:36.912Z,67.81
2019-05-10T05:52:07.492Z,67.66
2019-05-10T05:54:39.560Z,67.38
2019-05-10T05:57:10.163Z,66.44
2019-05-10T05:59:40.788Z,64.58
2019-05-10T06:02:11.385Z,63.29
2019-05-10T06:04:46.247Z,62.95
2019-05-10T06:07:14.429Z,62.59
2019-05-10T06:09:46.418Z,64.10
2019-05-10T06:12:16.919Z,62.29
2019-05-10T06:14:49.726Z,62.74
2019-05-10T06:17:23.765Z,62.43
2019-05-10T06:19:52.428Z,62.08
2019-05-10T06:22:22.925Z,62.53
2019-05-10T06:24:55.713Z,62.67
2019-05-10T06:27:26.621Z,63.09
2019-05-10T06:29:57.795Z,63.71
2019-05-10T06:32:28.801Z,64.06
2019-05-10T06:34:59.446Z,64.65
2019-05-10T06:37:31.444Z,64.73
2019-05-10T06:40:02.192Z,65.41
2019-05-10T06:42:34.614Z,66.53
2019-05-10T06:45:14.474Z,67.41
2019-05-10T06:47:41.870Z,67.93
2019-05-10T06:50:15.925Z,69.12
2019-05-10T06:52:46.478Z,69.77
2019-05-10T06:55:17.702Z,70.19
2019-05-10T06:57:50.500Z,70.30
2019-05-10T07:00:21.086Z,71.04
2019-05-10T07:02:52.040Z,70.90
2019-05-10T07:05:23.092Z,71.14
2019-05-10T07:07:53.912Z,71.41
2019-05-10T07:10:25.408Z,71.38
2019-05-10T07:12:57.311Z,71.16
2019-05-10T07:15:30.034Z,71.15
2019-05-10T07:18:01.685Z,71.55
2019-05-10T07:20:33.610Z,71.35
2019-05-10T07:23:05.999Z,70.17
2019-05-10T07:25:37.781Z,69.91
2019-05-10T07:28:15.509Z,69.15
2019-05-10T07:30:42.820Z,68.48
2019-05-10T07:33:14.447Z,68.86
2019-05-10T07:35:44.856Z,68.03
2019-05-10T07:38:15.249Z,67.93
2019-05-10T07:40:45.893Z,67.64
2019-05-10T07:43:24.666Z,67.44
2019-05-10T07:45:48.358Z,66.42
2019-05-10T07:48:19.257Z,65.17
2019-05-10T07:50:51.980Z,65.16
2019-05-10T07:53:25.035Z,65.18
2019-05-10T07:55:59.800Z,65.87
2019-05-10T07:58:26.763Z,66.10
2019-05-10T08:00:57.187Z,66.42
2019-05-10T08:03:29.801Z,66.21
2019-05-10T08:06:02.086Z,65.87
2019-05-10T08:08:31.933Z,66.53
2019-05-10T08:11:02.871Z,67.23
2019-05-10T08:13:33.196Z,65.96
2019-05-10T08:16:05.373Z,64.77
2019-05-10T08:18:35.663Z,64.47
2019-05-10T08:21:18.744Z,64.20
2019-05-10T08:23:38.125Z,63.29
2019-05-10T08:26:11.094Z,62.32
2019-05-10T08:28:44.488Z,62.54
2019-05-10T08:31:13.045Z,61.42
2019-05-10T08:33:52.513Z,61.03
2019-05-10T08:36:15.430Z,62.31
2019-05-10T08:38:56.271Z,61.31
2019-05-10T08:41:18.553Z,60.94
2019-05-10T08:43:49.095Z,60.13
2019-05-10T08:46:29.181Z,60.81
2019-05-10T08:48:53.879Z,61.44
2019-05-10T08:51:25.870Z,60.38
2019-05-10T08:53:58.330Z,60.86
2019-05-10T08:56:28.909Z,61.13
2019-05-10T08:58:59.418Z,59.34
2019-05-10T09:01:31.420Z,58.46
2019-05-10T09:04:06.885Z,57.93
2019-05-10T09:06:35.078Z,58.16
2019-05-10T09:09:08.418Z,58.75
2019-05-10T09:11:43.967Z,58.16
2019-05-10T09:14:19.755Z,57.96
2019-05-10T09:16:54.514Z,58.32
2019-05-10T09:19:18.997Z,59.00
2019-05-10T09:21:52.826Z,58.48
2019-05-10T09:24:22.894Z,58.37
2019-05-10T09:26:57.141Z,57.64
2019-05-10T09:29:32.177Z,57.53
2019-05-10T09:32:03.759Z,57.30
2019-05-10T09:34:33.186Z,57.77
2019-05-10T09:37:08.306Z,57.49
2019-05-10T09:39:36.183Z,57.95
2019-05-10T09:42:11.057Z,59.45
2019-05-10T09:44:40.633Z,61.33
2019-05-10T09:47:12.071Z,61.27
2019-05-10T09:49:46.869Z,62.37
2019-05-10T09:52:18.774Z,61.51
2019-05-10T09:54:49.561Z,61.17
2019-05-10T09:57:20.287Z,61.19
2019-05-10T09:59:52.760Z,61.00
2019-05-10T10:02:28.475Z,61.16
2019-05-10T10:04:58.657Z,61.94
2019-05-10T10:07:33.175Z,62.13
2019-05-10T10:10:00.689Z,62.81
2019-05-10T10:12:31.468Z,63.71
2019-05-10T10:15:02.283Z,64.87
2019-05-10T10:17:38.687Z,64.44
2019-05-10T10:20:08.172Z,64.76
2019-05-10T10:22:38.503Z,65.36
2019-05-10T10:25:09.516Z,66.95
2019-05-10T10:27:40.443Z,67.38
2019-05-10T10:30:17.759Z,67.09
2019-05-10T10:32:44.896Z,67.01
2019-05-10T10:35:18.991Z,66.89
2019-05-10T10:37:48.620Z,65.84
2019-05-10T10:40:19.343Z,65.51
2019-05-10T10:42:51.864Z,67.83
2019-05-10T10:45:22.835Z,68.17
2019-05-10T10:47:53.517Z,67.94
2019-05-10T10:50:24.163Z,67.08
2019-05-10T10:52:57.350Z,66.49
2019-05-10T10:55:30.579Z,65.88
2019-05-10T10:58:01.233Z,64.38
2019-05-10T11:00:38.791Z,63.50
2019-05-10T11:03:08.543Z,62.69
2019-05-10T11:05:40.649Z,63.06
2019-05-10T11:08:12.959Z,61.90
2019-05-10T11:10:45.201Z,61.41
2019-05-10T11:13:23.789Z,60.36
2019-05-10T11:15:48.403Z,59.95
2019-05-10T11:18:21.420Z,59.85
2019-05-10T11:20:53.930Z,60.20
2019-05-10T11:23:33.118Z,61.18
2019-05-10T11:25:56.733Z,60.60
2019-05-10T11:28:32.028Z,58.79
2019-05-10T11:31:01.141Z,60.27
2019-05-10T11:33:33.733Z,59.14
2019-05-10T11:36:08.676Z,58.06
2019-05-10T11:38:37.055Z,57.71
2019-05-10T11:41:13.071Z,57.60
2019-05-10T11:43:41.993Z,58.50
2019-05-10T11:46:14.722Z,58.23
2019-05-10T11:48:45.465Z,56.99
2019-05-10T11:51:17.577Z,58.39
2019-05-10T11:53:49.163Z,56.60
2019-05-10T11:56:27.398Z,56.96
2019-05-10T11:58:55.595Z,58.26
2019-05-10T12:01:26.246Z,58.27
2019-05-10T12:03:56.755Z,58.92
2019-05-10T12:06:27.701Z,61.56
2019-05-10T12:09:02.143Z,63.69
2019-05-10T12:14:04.004Z,68.23
2019-05-10T12:16:34.929Z,71.66
2019-05-10T12:21:38.426Z,73.67
2019-05-10T12:24:32.427Z,72.24
2019-05-10T12:26:19.459Z,65.08
2019-05-10T12:26:49.306Z,72.44
2019-05-10T12:29:17.107Z,71.20
2019-05-10T12:31:55.082Z,72.69
2019-05-10T12:34:20.717Z,74.75
2019-05-10T12:36:52.053Z,76.53
2019-05-10T12:39:23.117Z,76.37
2019-05-10T12:41:53.904Z,78.83
2019-05-10T12:44:24.667Z,79.42
2019-05-10T12:46:55.238Z,78.00
2019-05-10T12:49:25.903Z,77.90
2019-05-10T12:51:59.204Z,77.42
2019-05-10T12:54:31.623Z,76.99
2019-05-10T12:57:02.618Z,77.37
2019-05-10T12:59:34.946Z,75.97
2019-05-10T13:02:13.006Z,72.83
2019-05-10T13:04:47.348Z,69.47
2019-05-10T13:07:15.802Z,70.01
2019-05-10T13:09:49.907Z,69.36
2019-05-10T13:12:19.946Z,68.61
2019-05-10T13:14:52.926Z,68.79
2019-05-10T13:17:22.898Z,68.57
2019-05-10T13:19:58.435Z,69.50
2019-05-10T13:22:26.136Z,70.17
2019-05-10T13:24:56.886Z,70.19
2019-05-10T13:27:27.472Z,69.92
2019-05-10T13:29:58.032Z,67.83
2019-05-10T13:32:28.689Z,67.53
2019-05-10T13:34:59.349Z,67.44
2019-05-10T13:37:29.975Z,65.93
2019-05-10T13:40:05.422Z,67.60
2019-05-10T13:42:36.805Z,65.82
2019-05-10T13:45:05.190Z,65.14
2019-05-10T13:47:35.968Z,65.65
2019-05-10T13:50:06.920Z,66.30
2019-05-10T13:52:40.901Z,66.48
2019-05-10T13:55:10.152Z,67.59
2019-05-10T13:57:41.065Z,67.60
2019-05-10T14:00:13.734Z,68.53
2019-05-10T14:02:44.815Z,68.73
2019-05-10T14:05:17.584Z,67.64
2019-05-10T14:07:52.011Z,68.23
2019-05-10T14:10:23.221Z,68.84
2019-05-10T14:12:55.893Z,69.98
2019-05-10T14:15:25.188Z,70.08
2019-05-10T14:17:57.050Z,70.86
2019-05-10T14:20:27.909Z,71.54
2019-05-10T14:23:00.016Z,71.94
2019-05-10T14:25:36.225Z,72.62
2019-05-10T14:28:09.642Z,72.34
2019-05-10T14:30:36.641Z,70.56
2019-05-10T14:33:08.652Z,69.05
2019-05-10T14:35:39.692Z,68.97
2019-05-10T14:38:10.671Z,69.43
2019-05-10T14:40:41.534Z,69.72
2019-05-10T14:43:12.413Z,69.80
2019-05-10T14:45:43.219Z,69.23
2019-05-10T14:48:14.094Z,67.00
2019-05-10T14:50:46.656Z,65.86
2019-05-10T14:53:19.812Z,67.36
2019-05-10T14:55:50.246Z,67.05
2019-05-10T14:58:21.150Z,66.96
2019-05-10T15:00:52.158Z,67.03
2019-05-10T15:03:22.780Z,67.88
2019-05-10T15:05:55.538Z,68.44
2019-05-10T15:08:25.876Z,70.16
2019-05-10T15:10:57.316Z,72.32
2019-05-10T15:13:29.320Z,76.79
2019-05-10T15:16:00.055Z,78.41
2019-05-10T15:18:30.588Z,79.39
2019-05-10T15:21:01.284Z,79.59
2019-05-10T15:23:32.188Z,79.23
2019-05-10T15:26:10.554Z,80.22
2019-05-10T15:28:40.415Z,79.99
2019-05-10T15:31:07.996Z,79.96
2019-05-10T15:33:38.778Z,79.37
2019-05-10T15:36:10.670Z,79.59
2019-05-10T15:38:50.148Z,79.62
2019-05-10T15:41:16.835Z,79.16
2019-05-10T15:44:07.214Z,78.68
2019-05-10T15:46:42.400Z,78.85
2019-05-10T15:49:13.491Z,79.75
2019-05-10T15:51:49.149Z,79.70
2019-05-10T15:54:16.138Z,80.03
2019-05-10T15:56:46.869Z,79.85
2019-05-10T15:59:19.289Z,78.91
2019-05-10T16:01:49.974Z,76.28
2019-05-10T16:04:20.848Z,75.79
2019-05-10T16:06:51.502Z,76.20
2019-05-10T16:09:21.988Z,76.09
2019-05-10T16:11:56.021Z,76.15
2019-05-10T16:14:27.063Z,76.63
2019-05-10T16:16:57.613Z,77.21
2019-05-10T16:19:28.348Z,77.49
2019-05-10T16:21:58.888Z,77.96
2019-05-10T16:24:29.473Z,78.18
2019-05-10T16:27:01.855Z,78.56
2019-05-10T16:29:33.776Z,78.91
2019-05-10T16:32:05.407Z,78.79
2019-05-10T16:34:36.898Z,78.84
2019-05-10T16:37:07.662Z,79.04
2019-05-10T16:39:38.453Z,79.21
2019-05-10T16:42:09.541Z,79.43
2019-05-10T16:44:41.887Z,79.66
2019-05-10T16:47:13.986Z,80.13
2019-05-10T16:49:47.808Z,80.37
2019-05-10T16:52:19.512Z,80.65
2019-05-10T16:54:49.639Z,80.96
2019-05-10T16:57:20.415Z,81.07
2019-05-10T16:59:53.429Z,81.27
2019-05-10T17:02:24.437Z,81.53
2019-05-10T17:04:55.124Z,82.15
2019-05-10T17:07:25.701Z,82.90
2019-05-10T17:09:56.339Z,83.26
2019-05-10T17:12:28.152Z,83.21
2019-05-10T17:15:02.809Z,83.14
2019-05-10T17:17:37.195Z,83.01
2019-05-10T17:20:07.563Z,82.70
2019-05-10T17:22:35.834Z,82.66
2019-05-10T17:25:07.804Z,82.41
2019-05-10T17:27:38.642Z,82.21
2019-05-10T17:30:09.540Z,81.75
2019-05-10T17:32:40.003Z,81.69
2019-05-10T17:35:10.537Z,81.65
2019-05-10T17:37:41.016Z,81.82
2019-05-10T17:40:12.275Z,81.94
2019-05-10T17:42:43.300Z,82.42
2019-05-10T17:45:13.941Z,82.08
2019-05-10T17:47:44.446Z,82.05
2019-05-10T17:50:15.961Z,82.00
2019-05-10T17:52:46.340Z,82.08
2019-05-10T17:55:18.446Z,82.08
2019-05-10T17:57:54.798Z,82.44
2019-05-10T18:00:22.106Z,82.65
2019-05-10T18:02:52.513Z,82.72
2019-05-10T18:05:22.902Z,82.75
2019-05-10T18:07:53.268Z,82.60
2019-05-10T18:10:23.669Z,82.77
2019-05-10T18:12:57.284Z,82.98
2019-05-10T18:15:27.750Z,83.36
2019-05-10T18:18:02.657Z,83.88
2019-05-10T18:20:41.206Z,83.71
2019-05-10T18:23:03.499Z,83.27
2019-05-10T18:25:34.098Z,83.34
2019-05-10T18:28:04.839Z,83.22
2019-05-10T18:30:35.561Z,83.22
2019-05-10T18:33:11.555Z,83.00
2019-05-10T18:35:39.297Z,82.92
2019-05-10T18:38:11.455Z,83.15
2019-05-10T18:40:42.170Z,83.10
2019-05-10T18:43:13.011Z,82.86
2019-05-10T18:45:43.932Z,83.31
2019-05-10T18:48:14.518Z,83.53
2019-05-10T18:50:47.238Z,83.85
2019-05-10T18:53:17.708Z,84.28
2019-05-10T18:55:49.369Z,84.39
2019-05-10T18:58:23.286Z,84.54
2019-05-10T19:00:56.152Z,84.41
2019-05-10T19:03:28.043Z,84.28
2019-05-10T19:05:56.596Z,84.05
2019-05-10T19:08:27.267Z,83.35
2019-05-10T19:10:57.827Z,83.06
2019-05-10T19:13:32.646Z,82.52
2019-05-10T19:16:00.843Z,82.09
2019-05-10T19:18:31.637Z,81.77
2019-05-10T19:21:02.761Z,81.25
2019-05-10T19:23:33.758Z,80.56
2019-05-10T19:26:04.416Z,80.46
2019-05-10T19:28:35.091Z,80.40
2019-05-10T19:31:05.642Z,80.19
2019-05-10T19:33:38.063Z,80.29
2019-05-10T19:36:13.050Z,79.98
2019-05-10T19:38:41.583Z,79.56
2019-05-10T19:41:12.217Z,79.25
2019-05-10T19:43:42.983Z,79.35
2019-05-10T19:46:14.910Z,79.25
2019-05-10T19:48:45.537Z,79.30
2019-05-10T19:51:16.483Z,79.34
2019-05-10T19:53:47.106Z,79.11
2019-05-10T19:56:18.241Z,78.84
2019-05-10T19:58:49.481Z,79.30
2019-05-10T20:01:20.440Z,79.63
2019-05-10T20:03:51.572Z,80.36
2019-05-10T20:06:22.352Z,80.54
2019-05-10T20:08:52.856Z,80.53
2019-05-10T20:11:23.714Z,80.75
2019-05-10T20:13:54.504Z,80.24
2019-05-10T20:16:25.116Z,79.93
2019-05-10T20:18:55.958Z,80.34
2019-05-10T20:21:26.968Z,80.27
2019-05-10T20:23:57.706Z,80.53
2019-05-10T20:26:28.275Z,80.68
2019-05-10T20:29:00.249Z,80.75
2019-05-10T20:31:30.997Z,81.33
2019-05-10T20:34:01.801Z,81.68
2019-05-10T20:36:32.273Z,81.93
2019-05-10T20:39:05.737Z,81.99
2019-05-10T20:41:37.086Z,81.36
2019-05-10T20:44:08.952Z,80.80
2019-05-10T20:46:39.547Z,80.06
2019-05-10T20:49:10.575Z,80.34
2019-05-10T20:51:41.212Z,80.64
2019-05-10T20:54:11.905Z,80.76
2019-05-10T20:56:42.623Z,80.64
2019-05-10T20:59:13.239Z,80.69
2019-05-10T21:01:43.698Z,80.36
2019-05-10T21:04:14.590Z,80.23
2019-05-10T21:06:45.163Z,80.08
2019-05-10T21:09:18.439Z,79.69
2019-05-10T21:11:49.264Z,79.36
2019-05-10T21:14:19.757Z,79.59
2019-05-10T21:16:50.313Z,79.98
2019-05-10T21:19:33.396Z,80.24
2019-05-10T21:22:05.275Z,80.55
2019-05-10T21:24:36.993Z,80.53
2019-05-10T21:27:07.945Z,80.29
2019-05-10T21:29:38.524Z,80.05
2019-05-10T21:32:10.141Z,80.28
2019-05-10T21:34:40.910Z,80.62
2019-05-10T21:37:11.656Z,80.67
2019-05-10T21:39:42.338Z,80.79
2019-05-10T21:42:14.076Z,81.08
2019-05-10T21:44:44.656Z,80.82
2019-05-10T21:47:16.111Z,80.86
2019-05-10T21:49:47.155Z,80.80
2019-05-10T21:52:17.771Z,80.68
2019-05-10T21:54:48.459Z,80.65
2019-05-10T21:57:19.225Z,80.33
2019-05-10T21:59:50.293Z,80.16
2019-05-10T22:02:20.937Z,80.20
2019-05-10T22:04:51.716Z,80.17
2019-05-10T22:07:22.472Z,80.37
2019-05-10T22:09:53.165Z,80.16
2019-05-10T22:12:24.035Z,80.79
2019-05-10T22:14:55.027Z,81.44
2019-05-10T22:17:25.664Z,81.33
2019-05-10T22:19:56.495Z,81.79
2019-05-10T22:22:27.204Z,81.55
2019-05-10T22:24:57.865Z,81.74
2019-05-10T22:27:28.549Z,81.88
2019-05-10T22:29:59.324Z,82.10
2019-05-10T22:32:30.148Z,82.04
2019-05-10T22:35:01.122Z,81.96
2019-05-10T22:37:31.876Z,82.12
2019-05-10T22:40:02.440Z,82.13
2019-05-10T22:42:33.134Z,82.08
2019-05-10T22:45:04.256Z,82.11
2019-05-10T22:47:34.657Z,82.30
2019-05-10T22:50:05.422Z,82.33
2019-05-10T22:52:36.077Z,82.35
2019-05-10T22:55:06.994Z,82.41
2019-05-10T22:57:37.552Z,82.78
2019-05-10T23:00:09.569Z,83.20
2019-05-10T23:02:40.237Z,83.20
2019-05-10T23:05:11.515Z,83.33
2019-05-10T23:07:42.162Z,83.26
2019-05-10T23:10:13.110Z,83.04
2019-05-10T23:12:43.964Z,82.99
2019-05-10T23:15:16.888Z,82.87
2019-05-10T23:17:47.540Z,82.94
2019-05-10T23:20:18.216Z,82.94
2019-05-10T23:22:49.199Z,83.04
2019-05-10T23:25:19.790Z,83.16
2019-05-10T23:27:50.539Z,83.26
2019-05-10T23:30:21.410Z,83.38
2019-05-10T23:32:51.798Z,83.55
2019-05-10T23:35:22.333Z,83.69
2019-05-10T23:37:53.075Z,83.73
2019-05-10T23:40:23.928Z,83.92
2019-05-10T23:42:56.168Z,84.00
2019-05-10T23:45:26.913Z,84.06
2019-05-10T23:47:57.589Z,84.50
2019-05-10T23:50:28.113Z,84.33
2019-05-10T23:52:58.737Z,84.70
2019-05-10T23:55:29.652Z,85.18
2019-05-10T23:58:00.340Z,85.39
